Time;durP1;ratioP1;P1;durP2;ratioP2;P2;SDS_P1;SDS_P2;PMS_P1;PMS_P2;Temp;Humidity;BMP_temperature;BMP_pressure;BME280_temperature;BME280_humidity;BME280_pressure;Samples;Min_cycle;Max_cycle;Signal;HPM_P1;HPM_P2
2022/07/25 00:01:09;;;;;;;12.38;8.85;;;23.40;62.60;;;;;;5033001;28;20030;-13
2022/07/25 00:03:34;;;;;;;10.13;7.88;;;23.30;62.80;;;;;;5033068;28;20065;-12
2022/07/25 00:06:00;;;;;;;12.38;7.95;;;23.40;62.60;;;;;;5033147;28;20021;-13
2022/07/25 00:08:27;;;;;;;11.80;8.90;;;23.40;62.60;;;;;;5032889;28;20061;-13
2022/07/25 00:10:53;;;;;;;15.80;10.50;;;23.40;64.00;;;;;;5031597;28;20393;-13
2022/07/25 00:13:18;;;;;;;10.95;8.73;;;23.30;64.10;;;;;;5033265;28;20033;-12
2022/07/25 00:15:44;;;;;;;14.48;9.32;;;23.20;64.00;;;;;;5033177;28;20552;-13
2022/07/25 00:18:10;;;;;;;11.93;8.82;;;23.20;63.80;;;;;;5032898;28;20479;-13
2022/07/25 00:20:36;;;;;;;13.48;9.32;;;23.20;63.70;;;;;;5032757;28;20032;-12
2022/07/25 00:23:03;;;;;;;12.55;9.35;;;23.20;63.80;;;;;;5032754;28;20029;-13
2022/07/25 00:25:29;;;;;;;15.73;9.13;;;23.20;63.70;;;;;;5033073;28;20018;-13
2022/07/25 00:27:55;;;;;;;11.65;8.95;;;23.20;63.60;;;;;;5033121;28;20022;-13
2022/07/25 00:30:21;;;;;;;12.02;9.00;;;23.10;63.60;;;;;;5032814;28;20033;-13
2022/07/25 00:32:47;;;;;;;14.32;9.43;;;23.20;63.60;;;;;;5033052;28;20033;-13
2022/07/25 00:35:13;;;;;;;19.38;12.27;;;23.20;63.40;;;;;;5033027;28;20026;-13
2022/07/25 00:37:38;;;;;;;13.95;10.02;;;23.20;63.50;;;;;;5032777;28;20076;-13
2022/07/25 00:40:05;;;;;;;12.55;8.95;;;23.10;63.80;;;;;;5032630;28;20142;-12
2022/07/25 00:42:31;;;;;;;11.70;9.18;;;23.10;63.70;;;;;;5032516;28;20041;-15
2022/07/25 00:44:58;;;;;;;11.88;9.45;;;23.10;63.60;;;;;;5031417;28;20108;-13
2022/07/25 00:47:25;;;;;;;12.55;9.15;;;23.00;63.70;;;;;;5032877;28;20041;-13
2022/07/25 00:49:50;;;;;;;13.52;9.25;;;23.10;63.80;;;;;;5032560;28;20029;-13
2022/07/25 00:52:16;;;;;;;12.23;9.85;;;23.10;63.70;;;;;;5034564;28;20029;-15
2022/07/25 00:54:42;;;;;;;11.52;9.50;;;23.10;63.90;;;;;;5036627;28;20022;-14
2022/07/25 00:57:08;;;;;;;12.27;9.60;;;23.10;63.70;;;;;;5036240;28;20025;-13
2022/07/25 00:59:34;;;;;;;12.07;9.32;;;23.20;63.60;;;;;;5036187;28;20022;-13
2022/07/25 01:02:00;;;;;;;11.50;9.20;;;23.10;63.70;;;;;;5036306;28;20039;-13
2022/07/25 01:04:26;;;;;;;12.85;9.15;;;23.10;63.70;;;;;;5036129;28;20044;-13
2022/07/25 01:06:52;;;;;;;11.55;9.20;;;23.10;63.80;;;;;;5036167;28;20025;-13
2022/07/25 01:09:19;;;;;;;15.75;11.57;;;23.10;63.70;;;;;;5036449;28;20033;-13
2022/07/25 01:11:45;;;;;;;16.98;11.10;;;23.10;64.20;;;;;;5036233;28;20053;-12
2022/07/25 01:14:11;;;;;;;16.65;10.20;;;23.10;64.10;;;;;;5036269;28;20051;-13
2022/07/25 01:16:39;;;;;;;14.02;9.57;;;23.10;64.10;;;;;;5035722;28;20485;-13
2022/07/25 01:19:06;;;;;;;13.05;9.73;;;23.10;63.90;;;;;;5036067;28;20069;-13
2022/07/25 01:21:32;;;;;;;15.73;9.90;;;23.10;63.90;;;;;;5035660;28;20467;-13
2022/07/25 01:23:59;;;;;;;12.25;9.40;;;23.10;64.00;;;;;;5035977;28;20101;-13
2022/07/25 01:26:25;;;;;;;14.65;9.75;;;23.10;63.90;;;;;;5035653;28;20084;-13
2022/07/25 01:28:51;;;;;;;11.73;9.57;;;23.10;63.90;;;;;;5036014;28;20029;-13
2022/07/25 01:31:17;;;;;;;14.85;9.50;;;23.10;63.80;;;;;;5034892;28;20083;-13
2022/07/25 01:33:43;;;;;;;12.70;9.50;;;23.20;63.70;;;;;;5035859;28;20033;-13
2022/07/25 01:36:09;;;;;;;15.05;9.57;;;23.10;63.90;;;;;;5035566;28;20108;-13
2022/07/25 01:38:35;;;;;;;14.35;10.40;;;23.10;63.90;;;;;;5035645;28;20029;-14
2022/07/25 01:41:01;;;;;;;14.02;11.63;;;23.10;64.00;;;;;;5035334;28;20060;-12
2022/07/25 01:43:27;;;;;;;12.40;9.90;;;23.10;64.20;;;;;;5035764;28;20025;-13
2022/07/25 01:45:53;;;;;;;13.02;9.45;;;23.10;64.20;;;;;;5034213;28;20072;-13
2022/07/25 01:48:19;;;;;;;13.25;9.82;;;23.10;64.10;;;;;;5035246;28;20025;-14
2022/07/25 01:50:45;;;;;;;14.95;10.70;;;23.10;64.10;;;;;;5035048;28;20032;-13
2022/07/25 01:53:10;;;;;;;12.35;9.32;;;23.10;64.10;;;;;;5035253;28;20033;-13
2022/07/25 01:55:36;;;;;;;12.77;10.32;;;23.10;64.10;;;;;;5035243;28;20025;-13
2022/07/25 01:58:03;;;;;;;11.63;10.43;;;23.10;64.20;;;;;;5035476;28;20032;-13
2022/07/25 02:00:29;;;;;;;12.35;10.20;;;23.00;64.30;;;;;;5035003;28;20512;-12
2022/07/25 02:05:39;;;;;;;14.68;10.82;;;23.10;64.90;;;;;;5035414;28;20446;-13
2022/07/25 02:08:05;;;;;;;14.45;11.48;;;23.00;65.30;;;;;;5035165;28;20485;-12
2022/07/25 02:10:31;;;;;;;13.63;11.02;;;23.10;65.30;;;;;;5034648;28;20072;-13
2022/07/25 02:12:57;;;;;;;14.23;11.07;;;23.10;65.10;;;;;;5035144;28;20025;-13
2022/07/25 02:15:23;;;;;;;13.80;11.10;;;23.10;65.90;;;;;;5035394;28;20163;-13
2022/07/25 02:17:49;;;;;;;13.93;11.27;;;23.10;66.10;;;;;;5034788;28;20112;-13
2022/07/25 02:20:15;;;;;;;15.30;11.13;;;23.10;66.00;;;;;;5034749;28;20203;-15
2022/07/25 02:22:41;;;;;;;15.30;10.98;;;23.10;65.60;;;;;;5034996;28;20048;-14
2022/07/25 02:25:08;;;;;;;13.45;10.75;;;23.10;65.20;;;;;;5034604;28;20486;-13
2022/07/25 02:27:34;;;;;;;12.45;9.80;;;23.10;65.20;;;;;;5034908;28;20104;-13
2022/07/25 02:29:59;;;;;;;12.80;9.80;;;23.10;65.30;;;;;;5034454;28;20450;-13
2022/07/25 02:32:25;;;;;;;12.27;9.93;;;23.10;65.20;;;;;;5034235;28;20133;-13
2022/07/25 02:34:51;;;;;;;15.52;11.68;;;23.10;65.40;;;;;;5034461;28;20049;-12
2022/07/25 02:37:17;;;;;;;12.95;11.00;;;23.10;66.00;;;;;;5034323;28;20079;-13
2022/07/25 02:39:43;;;;;;;13.00;10.52;;;23.10;66.40;;;;;;5034390;28;20045;-13
2022/07/25 02:42:10;;;;;;;12.38;9.77;;;23.10;65.90;;;;;;5034712;28;20044;-15
2022/07/25 02:44:35;;;;;;;13.80;11.18;;;23.10;66.00;;;;;;5034000;28;20064;-14
2022/07/25 02:47:01;;;;;;;15.13;11.60;;;23.10;66.00;;;;;;5034185;28;20061;-13
2022/07/25 02:49:27;;;;;;;13.07;10.05;;;23.10;66.20;;;;;;5034520;28;20021;-15
2022/07/25 02:51:53;;;;;;;12.13;10.40;;;23.10;65.50;;;;;;5034292;28;20065;-13
2022/07/25 02:54:19;;;;;;;13.73;11.23;;;23.10;65.30;;;;;;5034201;28;20043;-12
2022/07/25 02:56:45;;;;;;;12.55;10.32;;;23.20;65.50;;;;;;5034349;28;20029;-13
2022/07/25 02:59:11;;;;;;;12.80;9.75;;;23.20;65.30;;;;;;5034010;28;20440;-12
2022/07/25 03:01:37;;;;;;;11.02;9.85;;;23.20;64.90;;;;;;5034227;28;20432;-13
2022/07/25 03:04:03;;;;;;;14.45;11.80;;;23.30;64.90;;;;;;5032601;28;20033;-13
2022/07/25 03:06:29;;;;;;;12.52;9.23;;;23.30;64.80;;;;;;5033907;28;20036;-13
2022/07/25 03:08:56;;;;;;;11.35;9.48;;;23.30;64.60;;;;;;5034075;28;20108;-13
2022/07/25 03:11:22;;;;;;;11.63;9.35;;;23.30;64.70;;;;;;5034152;28;20049;-13
2022/07/25 03:13:48;;;;;;;14.80;11.30;;;23.30;64.80;;;;;;5031925;28;20033;-13
2022/07/25 03:16:14;;;;;;;13.30;9.20;;;23.30;65.00;;;;;;5033360;28;20033;-14
2022/07/25 03:18:40;;;;;;;11.52;9.15;;;23.20;65.10;;;;;;5033968;28;20070;-14
2022/07/25 03:21:06;;;;;;;11.70;9.45;;;23.20;65.00;;;;;;5033962;28;20400;-14
2022/07/25 03:23:32;;;;;;;10.93;8.75;;;23.10;65.20;;;;;;5033820;28;20029;-14
2022/07/25 03:25:58;;;;;;;11.98;8.27;;;23.10;65.10;;;;;;5032284;28;20029;-14
2022/07/25 03:28:24;;;;;;;11.75;9.07;;;23.10;65.20;;;;;;5033374;28;20029;-14
2022/07/25 03:30:51;;;;;;;11.80;9.75;;;23.00;65.30;;;;;;5033675;28;20105;-12
2022/07/25 03:33:17;;;;;;;15.32;11.60;;;22.90;65.40;;;;;;5032339;28;20057;-14
2022/07/25 03:35:44;;;;;;;12.63;10.30;;;22.90;66.00;;;;;;5032483;28;20443;-14
2022/07/25 03:38:10;;;;;;;16.50;11.00;;;22.90;66.00;;;;;;5033642;28;20030;-12
2022/07/25 03:40:36;;;;;;;12.30;10.23;;;22.80;66.10;;;;;;5033052;28;20045;-13
2022/07/25 03:43:02;;;;;;;15.30;9.85;;;22.70;66.30;;;;;;5033586;28;20026;-12
2022/07/25 03:45:28;;;;;;;12.20;9.38;;;22.70;66.40;;;;;;5033297;28;20091;-13
2022/07/25 03:47:54;;;;;;;17.35;10.73;;;22.60;66.50;;;;;;5033482;28;20022;-13
2022/07/25 03:50:20;;;;;;;16.65;10.98;;;22.60;66.60;;;;;;5032880;28;20021;-13
2022/07/25 03:52:46;;;;;;;13.80;10.52;;;22.60;66.80;;;;;;5033479;28;20033;-15
2022/07/25 03:55:12;;;;;;;14.65;11.88;;;22.60;66.80;;;;;;5033479;28;20056;-13
2022/07/25 03:57:38;;;;;;;20.17;12.90;;;22.50;66.80;;;;;;5033420;28;20056;-13
2022/07/25 04:00:08;;;;;;;16.85;11.48;;;22.60;67.00;;;;;;5033254;28;20363;-13
2022/07/25 04:02:36;;;;;;;18.00;12.65;;;22.60;67.20;;;;;;5032924;28;20505;-13
2022/07/25 04:05:04;;;;;;;15.25;10.73;;;22.50;67.30;;;;;;5033457;28;20525;-13
2022/07/25 04:07:30;;;;;;;12.85;10.10;;;22.60;67.40;;;;;;5033246;28;20061;-13
2022/07/25 04:09:56;;;;;;;13.48;10.20;;;22.50;67.40;;;;;;5033200;28;20056;-13
2022/07/25 04:12:22;;;;;;;21.85;13.07;;;22.50;67.50;;;;;;5032724;28;20045;-14
2022/07/25 04:14:48;;;;;;;17.40;12.32;;;22.50;67.80;;;;;;5032955;28;20056;-14
2022/07/25 04:17:14;;;;;;;24.52;14.25;;;22.50;67.70;;;;;;5032900;28;20065;-14
2022/07/25 04:19:40;;;;;;;18.95;13.40;;;22.50;67.90;;;;;;5032992;28;20022;-13
2022/07/25 04:22:06;;;;;;;15.23;12.32;;;22.50;68.10;;;;;;5033263;28;20022;-13
2022/07/25 04:24:32;;;;;;;20.40;12.85;;;22.60;68.10;;;;;;5032773;28;20083;-13
2022/07/25 04:26:58;;;;;;;19.77;13.40;;;22.60;67.90;;;;;;5036844;28;20100;-13
2022/07/25 04:29:25;;;;;;;14.65;11.63;;;22.60;67.80;;;;;;5037352;28;20401;-13
2022/07/25 04:31:51;;;;;;;17.60;12.45;;;22.60;67.70;;;;;;5036942;28;20069;-13
2022/07/25 04:34:17;;;;;;;21.35;13.80;;;22.70;67.60;;;;;;5035285;28;20044;-14
2022/07/25 04:36:43;;;;;;;16.48;12.30;;;22.80;67.60;;;;;;5036665;28;20022;-13
2022/07/25 04:39:09;;;;;;;22.95;14.13;;;22.80;67.50;;;;;;5035338;28;21578;-13
2022/07/25 04:41:34;;;;;;;16.25;11.77;;;22.90;67.40;;;;;;5036544;28;20381;-12
2022/07/25 04:44:00;;;;;;;24.00;13.07;;;22.90;67.30;;;;;;5036556;28;20036;-13
2022/07/25 04:46:26;;;;;;;20.85;13.85;;;23.00;67.20;;;;;;5036416;28;20021;-13
2022/07/25 04:48:53;;;;;;;21.80;13.73;;;23.10;67.00;;;;;;5036408;28;20022;-13
2022/07/25 04:51:18;;;;;;;16.50;12.25;;;23.20;66.80;;;;;;5035053;28;20026;-13
2022/07/25 04:53:45;;;;;;;19.20;13.02;;;23.30;66.70;;;;;;5036554;28;20037;-13
2022/07/25 04:56:11;;;;;;;13.65;11.90;;;23.30;66.50;;;;;;5036305;28;20041;-14
2022/07/25 04:58:37;;;;;;;18.70;12.35;;;23.40;66.20;;;;;;5036237;28;20113;-13
2022/07/25 05:01:03;;;;;;;15.55;12.18;;;23.50;65.90;;;;;;5036212;28;20469;-13
2022/07/25 05:03:29;;;;;;;14.57;11.80;;;23.70;65.70;;;;;;5036444;28;20022;-13
2022/07/25 05:05:55;;;;;;;19.05;11.60;;;23.80;65.40;;;;;;5036203;28;20398;-13
2022/07/25 05:08:20;;;;;;;14.68;10.73;;;23.90;65.10;;;;;;5035865;28;20109;-13
2022/07/25 05:10:46;;;;;;;14.48;11.18;;;24.00;64.90;;;;;;5035960;28;20040;-13
2022/07/25 05:13:12;;;;;;;16.92;12.55;;;24.10;64.70;;;;;;5036034;28;20069;-13
2022/07/25 05:15:39;;;;;;;21.27;13.18;;;24.20;64.40;;;;;;5036049;28;20033;-13
2022/07/25 05:18:05;;;;;;;18.33;11.88;;;24.30;64.30;;;;;;5035898;28;20033;-13
2022/07/25 05:20:30;;;;;;;18.92;13.23;;;24.40;64.10;;;;;;5035908;28;20021;-14
2022/07/25 05:22:56;;;;;;;15.43;11.35;;;24.50;64.00;;;;;;5036106;28;20029;-13
2022/07/25 05:25:22;;;;;;;12.70;10.77;;;24.70;63.80;;;;;;5034613;28;20036;-13
2022/07/25 05:27:48;;;;;;;15.35;11.88;;;24.80;63.60;;;;;;5034534;28;20088;-13
2022/07/25 05:30:15;;;;;;;15.77;11.70;;;24.90;63.50;;;;;;5035388;28;20041;-13
2022/07/25 05:32:41;;;;;;;17.00;13.20;;;25.00;63.40;;;;;;5035663;28;20060;-12
2022/07/25 05:35:09;;;;;;;17.23;11.00;;;25.10;63.30;;;;;;5035882;28;20029;-14
2022/07/25 05:37:36;;;;;;;14.45;10.82;;;25.30;63.10;;;;;;5034775;28;20060;-13
2022/07/25 05:40:04;;;;;;;14.85;10.73;;;25.40;62.80;;;;;;5035371;28;20159;-13
2022/07/25 05:42:30;;;;;;;13.77;10.02;;;25.50;62.60;;;;;;5035576;28;20025;-13
2022/07/25 05:44:56;;;;;;;15.35;11.48;;;25.60;62.30;;;;;;5035381;28;20137;-13
2022/07/25 05:47:22;;;;;;;14.57;10.60;;;25.70;62.00;;;;;;5035413;28;20120;-12
2022/07/25 05:49:48;;;;;;;15.95;11.70;;;25.90;61.80;;;;;;5035139;28;20120;-12
2022/07/25 05:52:14;;;;;;;13.20;9.80;;;26.00;61.50;;;;;;5035114;28;20068;-13
2022/07/25 05:54:40;;;;;;;11.90;9.80;;;26.00;61.30;;;;;;5035550;28;20053;-13
2022/07/25 05:57:06;;;;;;;16.23;11.30;;;26.20;61.10;;;;;;5035454;28;20113;-12
2022/07/25 05:59:32;;;;;;;17.67;11.55;;;26.30;60.90;;;;;;5035209;28;20021;-12
2022/07/25 06:02:00;;;;;;;15.13;11.00;;;26.40;60.80;;;;;;5035064;28;20014;-13
2022/07/25 06:04:26;;;;;;;14.35;11.25;;;26.50;60.70;;;;;;5033696;28;20033;-13
2022/07/25 06:06:52;;;;;;;18.50;14.88;;;26.60;60.50;;;;;;5035242;28;20109;-14
2022/07/25 06:09:20;;;;;;;18.90;11.80;;;26.70;60.30;;;;;;5035318;28;20029;-13
2022/07/25 06:11:47;;;;;;;18.58;14.10;;;26.90;60.00;;;;;;5034881;28;20033;-13
2022/07/25 06:14:14;;;;;;;17.02;13.40;;;27.00;59.70;;;;;;5034819;28;20048;-13
2022/07/25 06:16:42;;;;;;;16.20;13.00;;;27.10;59.50;;;;;;5034817;28;20437;-13
2022/07/25 06:19:09;;;;;;;21.63;13.45;;;27.20;59.40;;;;;;5033514;28;20044;-13
2022/07/25 06:21:35;;;;;;;17.45;12.45;;;27.40;59.30;;;;;;5034859;28;20013;-13
2022/07/25 06:24:02;;;;;;;14.50;12.00;;;27.40;59.00;;;;;;5034715;28;20027;-13
2022/07/25 06:26:28;;;;;;;17.42;12.55;;;27.60;58.70;;;;;;5034521;28;20036;-13
2022/07/25 06:28:55;;;;;;;19.85;12.48;;;27.70;58.50;;;;;;5034601;28;20025;-12
2022/07/25 06:31:21;;;;;;;15.15;11.38;;;27.90;58.30;;;;;;5034472;28;20056;-13
2022/07/25 06:33:47;;;;;;;14.77;10.85;;;28.00;57.90;;;;;;5034818;28;20033;-13
2022/07/25 06:36:13;;;;;;;13.70;10.65;;;28.20;57.70;;;;;;5033485;28;20053;-13
2022/07/25 06:38:39;;;;;;;14.45;10.75;;;28.30;57.40;;;;;;5034470;28;20080;-12
2022/07/25 06:41:05;;;;;;;12.30;9.52;;;28.40;57.10;;;;;;5034136;28;20037;-12
2022/07/25 06:43:31;;;;;;;12.70;10.10;;;28.60;56.80;;;;;;5034628;28;20033;-12
2022/07/25 06:45:57;;;;;;;12.60;9.93;;;28.70;56.60;;;;;;5034815;28;20048;-12
2022/07/25 06:48:23;;;;;;;14.35;9.63;;;28.90;56.00;;;;;;5033811;28;20429;-12
2022/07/25 06:50:50;;;;;;;12.48;9.43;;;29.10;55.20;;;;;;5033886;28;20061;-12
2022/07/25 06:53:17;;;;;;;12.93;9.57;;;29.30;54.60;;;;;;5034123;28;20402;-12
2022/07/25 06:55:43;;;;;;;14.27;10.40;;;29.60;53.10;;;;;;5032813;28;20028;-12
2022/07/25 06:58:09;;;;;;;12.57;9.57;;;29.80;51.80;;;;;;5034369;28;20029;-13
2022/07/25 07:00:35;;;;;;;13.65;9.40;;;30.00;51.00;;;;;;5033766;28;20394;-13
2022/07/25 07:03:02;;;;;;;11.93;9.45;;;30.20;51.00;;;;;;5032648;28;20496;-12
2022/07/25 07:05:31;;;;;;;12.50;9.88;;;30.40;50.70;;;;;;5034210;28;20030;-13
2022/07/25 07:07:58;;;;;;;12.02;9.52;;;30.60;50.70;;;;;;5032578;28;20481;-12
2022/07/25 07:10:25;;;;;;;11.82;8.88;;;30.80;50.10;;;;;;5033535;28;20068;-13
2022/07/25 07:13:02;;;;;;;11.73;8.90;;;30.90;49.60;;;;;;5034072;28;20040;-13
2022/07/25 07:15:28;;;;;;;13.18;9.48;;;31.10;49.50;;;;;;5032989;28;20104;-13
2022/07/25 07:17:54;;;;;;;12.57;8.90;;;31.20;48.70;;;;;;5033706;28;20112;-13
2022/07/25 07:20:20;;;;;;;14.93;8.80;;;31.40;48.70;;;;;;5033758;28;20018;-13
2022/07/25 07:22:47;;;;;;;11.88;8.80;;;31.50;48.50;;;;;;5033900;28;20429;-13
2022/07/25 07:25:16;;;;;;;15.68;9.80;;;31.60;48.20;;;;;;5032370;28;20053;-13
2022/07/25 07:27:44;;;;;;;11.60;9.63;;;31.90;48.00;;;;;;5033540;28;20420;-12
2022/07/25 07:30:13;;;;;;;11.55;8.35;;;32.00;47.40;;;;;;5033391;28;20025;-12
2022/07/25 07:32:40;;;;;;;11.18;9.35;;;32.20;47.20;;;;;;5033473;28;20537;-12
2022/07/25 07:35:06;;;;;;;10.35;9.20;;;32.30;47.10;;;;;;5033986;28;20028;-12
2022/07/25 07:37:32;;;;;;;16.13;9.52;;;32.40;46.70;;;;;;5033641;28;20065;-12
2022/07/25 07:39:58;;;;;;;9.68;8.68;;;32.50;45.90;;;;;;5033681;28;20087;-12
2022/07/25 07:42:24;;;;;;;13.48;9.07;;;32.60;46.30;;;;;;5033127;28;20045;-12
2022/07/25 07:44:50;;;;;;;12.65;9.05;;;32.80;46.20;;;;;;5033606;28;20033;-12
2022/07/25 07:47:16;;;;;;;13.90;9.18;;;32.90;46.00;;;;;;5033264;28;20030;-12
2022/07/25 07:49:42;;;;;;;12.13;9.60;;;33.10;45.90;;;;;;5033496;28;20029;-12
2022/07/25 07:52:08;;;;;;;14.57;8.73;;;33.20;45.90;;;;;;5033134;28;20099;-12
2022/07/25 07:57:18;;;;;;;11.20;9.35;;;33.50;44.20;;;;;;5033475;28;20039;-12
2022/07/25 07:59:44;;;;;;;15.15;9.63;;;33.60;44.30;;;;;;5033236;28;20025;-13
2022/07/25 08:02:10;;;;;;;12.35;8.02;;;33.80;44.10;;;;;;5031772;28;20547;-12
2022/07/25 08:04:36;;;;;;;9.68;8.18;;;33.90;44.40;;;;;;5032871;28;20021;-12
2022/07/25 08:07:02;;;;;;;9.65;7.93;;;34.20;44.00;;;;;;5032956;28;20167;-12
2022/07/25 08:09:28;;;;;;;12.35;8.48;;;34.40;42.50;;;;;;5033311;28;20087;-12
2022/07/25 08:11:54;;;;;;;11.18;9.20;;;34.70;42.10;;;;;;5033038;28;20500;-12
2022/07/25 08:14:20;;;;;;;10.02;7.97;;;34.80;41.50;;;;;;5032711;28;20123;-12
2022/07/25 08:16:46;;;;;;;9.20;7.75;;;34.90;41.60;;;;;;5033406;28;20025;-12
2022/07/25 08:19:12;;;;;;;14.43;8.65;;;35.20;41.30;;;;;;5033579;28;20128;-13
2022/07/25 08:21:38;;;;;;;9.82;8.80;;;35.30;40.90;;;;;;5032845;28;20030;-12
2022/07/25 08:24:05;;;;;;;11.68;9.10;;;35.30;40.30;;;;;;5032862;28;20485;-12
2022/07/25 08:26:32;;;;;;;10.18;8.20;;;35.40;40.40;;;;;;5032720;28;20076;-12
2022/07/25 08:28:58;;;;;;;14.02;8.77;;;35.30;40.60;;;;;;5033054;28;20473;-13
2022/07/25 08:31:25;;;;;;;9.20;7.50;;;35.50;40.60;;;;;;5032696;28;20022;-13
2022/07/25 08:33:58;;;;;;;9.93;7.50;;;35.70;40.50;;;;;;5033349;28;20025;-12
2022/07/25 08:36:24;;;;;;;9.57;7.88;;;35.90;39.20;;;;;;5032431;28;20497;-12
2022/07/25 08:38:49;;;;;;;11.63;7.90;;;36.20;38.80;;;;;;5032589;28;20125;-13
2022/07/25 08:41:15;;;;;;;10.60;8.00;;;36.50;38.60;;;;;;5032770;28;20065;-12
2022/07/25 08:43:44;;;;;;;12.27;8.70;;;36.80;38.10;;;;;;5032984;28;20108;-12
2022/07/25 08:46:12;;;;;;;9.98;8.57;;;36.90;37.10;;;;;;5032720;28;20021;-13
2022/07/25 08:48:39;;;;;;;13.70;7.80;;;37.10;37.10;;;;;;5032906;28;20026;-13
2022/07/25 08:51:06;;;;;;;10.57;7.97;;;37.20;37.40;;;;;;5032740;28;20034;-13
2022/07/25 08:53:34;;;;;;;10.02;8.13;;;37.30;37.40;;;;;;5032897;28;20029;-12
2022/07/25 08:56:04;;;;;;;9.93;8.50;;;37.40;37.00;;;;;;5032855;28;20028;-13
2022/07/25 08:58:30;;;;;;;11.48;8.82;;;37.50;37.00;;;;;;5032788;28;20022;-12
2022/07/25 09:00:57;;;;;;;13.07;8.25;;;37.60;36.80;;;;;;5032634;28;20456;-12
2022/07/25 09:03:25;;;;;;;9.90;7.57;;;37.70;37.10;;;;;;5032811;28;20057;-13
2022/07/25 09:05:51;;;;;;;10.23;8.48;;;37.90;37.00;;;;;;5032710;28;20032;-12
2022/07/25 09:08:17;;;;;;;10.95;7.80;;;38.00;36.60;;;;;;5032573;28;20037;-13
2022/07/25 09:10:51;;;;;;;9.07;7.75;;;38.30;36.30;;;;;;5033091;28;20018;-12
2022/07/25 09:13:20;;;;;;;12.90;8.30;;;38.50;35.50;;;;;;5034945;28;20095;-13
2022/07/25 09:15:55;;;;;;;11.85;8.20;;;38.70;34.90;;;;;;5036000;28;20390;-12
2022/07/25 09:18:26;;;;;;;11.15;7.95;;;38.80;34.70;;;;;;5036076;28;20119;-13
2022/07/25 09:20:57;;;;;;;11.38;8.55;;;38.90;34.70;;;;;;5036444;28;20025;-13
2022/07/25 09:23:29;;;;;;;9.20;7.80;;;39.00;34.60;;;;;;5035964;28;20067;-13
2022/07/25 09:26:05;;;;;;;8.20;7.13;;;39.10;34.10;;;;;;5036083;28;20053;-13
2022/07/25 09:28:31;;;;;;;11.20;7.45;;;39.20;34.10;;;;;;5035562;28;20112;-13
2022/07/25 09:30:59;;;;;;;10.25;7.22;;;39.40;33.60;;;;;;5035944;28;20528;-13
2022/07/25 09:33:28;;;;;;;9.00;6.45;;;39.50;33.00;;;;;;5035661;28;20033;-13
2022/07/25 09:35:55;;;;;;;11.52;7.72;;;39.60;32.70;;;;;;5035527;28;20064;-12
2022/07/25 09:38:22;;;;;;;9.80;7.35;;;39.90;31.20;;;;;;5035681;28;20083;-13
2022/07/25 09:41:01;;;;;;;8.25;6.50;;;40.00;31.30;;;;;;5035337;28;20444;-12
2022/07/25 09:43:39;;;;;;;9.70;6.88;;;40.10;31.30;;;;;;5035519;28;20033;-12
2022/07/25 09:46:06;;;;;;;8.48;7.22;;;40.30;30.90;;;;;;5035704;28;20116;-12
2022/07/25 09:48:33;;;;;;;7.72;6.93;;;40.40;30.90;;;;;;5035195;28;20022;-13
2022/07/25 09:51:00;;;;;;;7.13;6.40;;;40.50;30.70;;;;;;5035589;28;20026;-13
2022/07/25 09:53:27;;;;;;;7.40;6.68;;;40.50;30.90;;;;;;5035498;28;20030;-12
2022/07/25 09:55:55;;;;;;;8.77;6.90;;;40.50;30.90;;;;;;5035584;28;20034;-13
2022/07/25 09:58:23;;;;;;;11.10;7.07;;;40.60;30.70;;;;;;5034991;28;20076;-13
2022/07/25 10:00:51;;;;;;;9.68;7.00;;;40.80;29.90;;;;;;5035482;28;20025;-12
2022/07/25 10:03:49;;;;;;;9.77;6.78;;;40.90;29.60;;;;;;5035354;28;20148;-12
2022/07/25 10:06:36;;;;;;;8.80;6.25;;;40.90;29.80;;;;;;5034966;28;20018;-13
2022/07/25 10:09:02;;;;;;;8.90;6.78;;;40.80;30.10;;;;;;5035515;28;20026;-13
2022/07/25 10:11:29;;;;;;;10.27;7.47;;;40.70;30.70;;;;;;5034885;28;20087;-12
2022/07/25 10:13:55;;;;;;;8.90;6.70;;;40.90;30.70;;;;;;5034922;28;20072;-12
2022/07/25 10:16:24;;;;;;;7.65;6.88;;;41.20;30.70;;;;;;5034936;28;20045;-13
2022/07/25 10:18:53;;;;;;;8.25;6.75;;;41.50;29.70;;;;;;5035308;28;20049;-13
2022/07/25 10:21:20;;;;;;;17.27;7.85;;;41.80;29.40;;;;;;5034746;28;20033;-13
2022/07/25 10:24:02;;;;;;;10.65;6.90;;;42.00;28.80;;;;;;5034757;28;20056;-12
2022/07/25 10:26:28;;;;;;;10.03;7.40;;;42.20;28.20;;;;;;5034858;28;20112;-13
2022/07/25 10:28:55;;;;;;;9.52;7.28;;;42.20;28.20;;;;;;5034599;28;20264;-13
2022/07/25 10:31:51;;;;;;;8.07;6.53;;;42.20;28.30;;;;;;5034553;28;20482;-12
2022/07/25 10:34:30;;;;;;;8.45;7.57;;;42.10;28.20;;;;;;5034477;28;20034;-13
2022/07/25 10:36:56;;;;;;;7.68;6.97;;;42.30;27.80;;;;;;5034749;28;20057;-13
2022/07/25 10:39:22;;;;;;;10.45;6.47;;;42.40;27.20;;;;;;5034187;28;20077;-12
2022/07/25 10:42:01;;;;;;;7.68;6.60;;;42.50;27.60;;;;;;5034395;28;20437;-13
2022/07/25 10:44:38;;;;;;;8.43;6.97;;;42.60;27.60;;;;;;5121619;22;20045;-13
2022/07/25 10:47:13;;;;;;;7.95;7.18;;;42.60;27.60;;;;;;5034619;28;20049;-13
2022/07/25 10:49:42;;;;;;;9.40;6.95;;;42.40;27.40;;;;;;5034386;28;20030;-13
2022/07/25 10:52:16;;;;;;;8.85;6.95;;;42.30;27.70;;;;;;5034281;28;20025;-13
2022/07/25 10:54:53;;;;;;;7.72;6.78;;;42.50;27.60;;;;;;5034543;28;20025;-13
2022/07/25 10:57:20;;;;;;;8.18;6.60;;;42.90;27.40;;;;;;5034510;28;20021;-13
2022/07/25 10:59:46;;;;;;;10.70;6.55;;;43.30;27.20;;;;;;5034339;28;20032;-13
2022/07/25 11:02:15;;;;;;;7.93;6.82;;;43.50;26.80;;;;;;5034189;28;20017;-13
2022/07/25 11:04:42;;;;;;;7.20;6.45;;;43.50;26.50;;;;;;5034033;28;20122;-13
2022/07/25 11:07:09;;;;;;;13.52;6.88;;;43.30;26.60;;;;;;5033960;28;20021;-13
2022/07/25 11:09:35;;;;;;;7.55;6.32;;;43.20;26.70;;;;;;5034223;28;20072;-13
2022/07/25 11:12:01;;;;;;;11.48;7.05;;;43.10;26.60;;;;;;5032769;28;20100;-13
2022/07/25 11:14:34;;;;;;;7.63;6.35;;;42.90;26.50;;;;;;5033851;28;20125;-13
2022/07/25 11:17:19;;;;;;;7.07;5.93;;;42.80;26.80;;;;;;5033887;28;20017;-13
2022/07/25 11:19:59;;;;;;;9.68;5.82;;;42.70;27.20;;;;;;5033903;28;20476;-13
2022/07/25 11:22:26;;;;;;;7.10;6.00;;;43.10;27.10;;;;;;5033527;28;20032;-13
2022/07/25 11:24:53;;;;;;;8.75;6.72;;;43.70;26.50;;;;;;5034116;28;20485;-13
2022/07/25 11:27:26;;;;;;;7.30;6.57;;;44.40;25.40;;;;;;5033597;28;20041;-13
2022/07/25 11:30:04;;;;;;;8.18;7.00;;;44.90;25.00;;;;;;5033472;28;20476;-13
2022/07/25 11:32:42;;;;;;;7.60;6.75;;;45.30;24.00;;;;;;5033306;28;20036;-13
2022/07/25 11:35:09;;;;;;;6.93;6.22;;;45.60;24.00;;;;;;5033289;28;20021;-13
2022/07/25 11:37:38;;;;;;;8.13;6.82;;;45.60;24.30;;;;;;5033610;28;20112;-13
2022/07/25 11:40:06;;;;;;;8.73;6.13;;;45.80;24.20;;;;;;5033441;28;20022;-13
2022/07/25 11:43:02;;;;;;;7.57;6.20;;;45.90;24.50;;;;;;5033326;28;20036;-13
2022/07/25 11:45:35;;;;;;;9.88;6.85;;;46.30;23.80;;;;;;5011236;28;20115;-13
2022/07/25 11:48:06;;;;;;;8.13;7.03;;;46.50;23.50;;;;;;5011567;28;20026;-13
2022/07/25 11:50:35;;;;;;;9.95;7.10;;;46.60;23.70;;;;;;5011530;28;20083;-13
2022/07/25 11:53:04;;;;;;;8.15;6.82;;;46.70;23.70;;;;;;5011474;28;20034;-13
2022/07/25 11:55:35;;;;;;;8.80;6.50;;;46.70;23.80;;;;;;5011407;28;20034;-12
2022/07/25 11:58:03;;;;;;;8.80;7.10;;;46.90;23.90;;;;;;5011563;28;20497;-13
2022/07/25 12:00:33;;;;;;;8.05;7.13;;;46.90;23.80;;;;;;5011101;28;20030;-13
2022/07/25 12:03:10;;;;;;;7.13;6.43;;;47.10;23.50;;;;;;5011470;28;20517;-13
2022/07/25 12:05:37;;;;;;;7.03;6.32;;;47.30;22.90;;;;;;5011346;28;20022;-13
2022/07/25 12:08:12;;;;;;;7.10;6.15;;;47.50;23.40;;;;;;5011252;28;20033;-13
2022/07/25 12:10:40;;;;;;;8.57;6.30;;;47.70;22.80;;;;;;5011196;28;20481;-13
2022/07/25 12:13:08;;;;;;;10.63;6.60;;;47.90;23.20;;;;;;5011312;28;20058;-13
2022/07/25 12:15:41;;;;;;;12.98;6.95;;;47.80;22.80;;;;;;5011109;28;20030;-13
2022/07/25 12:18:09;;;;;;;19.52;7.40;;;47.60;22.40;;;;;;5011224;28;20034;-13
2022/07/25 12:20:41;;;;;;;12.65;6.32;;;47.20;22.60;;;;;;5010948;28;20026;-13
2022/07/25 12:23:10;;;;;;;13.80;6.80;;;46.70;23.10;;;;;;5033167;28;20036;-13
2022/07/25 12:25:41;;;;;;;10.32;7.00;;;46.70;23.20;;;;;;5033226;28;20032;-13
2022/07/25 12:28:09;;;;;;;8.30;6.63;;;46.90;23.00;;;;;;5033185;28;20068;-13
2022/07/25 12:30:37;;;;;;;9.55;6.93;;;47.10;22.50;;;;;;5032498;28;20112;-13
2022/07/25 12:33:04;;;;;;;7.53;6.68;;;47.20;22.30;;;;;;5033166;28;20033;-13
2022/07/25 12:35:31;;;;;;;9.07;6.70;;;47.20;22.60;;;;;;5033063;28;20385;-13
2022/07/25 12:37:57;;;;;;;8.70;6.50;;;47.40;22.30;;;;;;5033330;28;20080;-13
2022/07/25 12:40:23;;;;;;;14.20;6.72;;;47.00;22.50;;;;;;5032840;28;20029;-13
2022/07/25 12:42:50;;;;;;;9.95;6.20;;;46.60;22.70;;;;;;5032824;28;20535;-13